createdAt,value
2022-10-09T00:01:19.118Z,96473.00
2022-10-09T00:06:46.876Z,96474.00
2022-10-09T00:12:14.682Z,96476.00
2022-10-09T00:17:42.417Z,96489.00
2022-10-09T00:23:12.027Z,96484.00
2022-10-09T00:28:40.011Z,96470.00
2022-10-09T00:34:07.855Z,96472.00
2022-10-09T00:39:36.107Z,96464.00
2022-10-09T00:45:05.207Z,96453.00
2022-10-09T00:50:44.577Z,96455.00
2022-10-09T00:56:12.505Z,96449.00
2022-10-09T01:01:42.117Z,96438.00
2022-10-09T01:07:38.379Z,96433.00
2022-10-09T01:13:22.506Z,96430.00
2022-10-09T01:19:11.443Z,96427.00
2022-10-09T01:24:55.314Z,96426.00
2022-10-09T01:30:23.255Z,96411.00
2022-10-09T01:35:51.903Z,96411.00
2022-10-09T01:41:20.919Z,96409.00
2022-10-09T01:46:49.024Z,96408.00
2022-10-09T01:52:47.705Z,96405.00
2022-10-09T01:58:37.646Z,96396.00
2022-10-09T02:04:10.435Z,96386.00
2022-10-09T02:09:39.771Z,96378.00
2022-10-09T02:15:09.260Z,96370.00
2022-10-09T02:20:42.519Z,96375.00
2022-10-09T02:26:11.710Z,96365.00
2022-10-09T02:31:42.315Z,96359.00
2022-10-09T02:37:10.313Z,96354.00
2022-10-09T02:42:38.214Z,96358.00
2022-10-09T02:48:06.908Z,96359.00
2022-10-09T02:53:34.842Z,96350.00
2022-10-09T02:59:02.669Z,96359.00
2022-10-09T03:04:30.470Z,96360.00
2022-10-09T03:09:58.843Z,96345.00
2022-10-09T03:15:26.640Z,96349.00
2022-10-09T03:20:54.380Z,96330.00
2022-10-09T03:26:26.386Z,96326.00
2022-10-09T03:31:54.161Z,96327.00
2022-10-09T03:37:21.888Z,96328.00
2022-10-09T03:42:49.956Z,96328.00
2022-10-09T03:48:18.146Z,96333.00
2022-10-09T03:53:46.066Z,96327.00
2022-10-09T03:59:13.926Z,96325.00
2022-10-09T04:04:41.661Z,96326.00
2022-10-09T04:10:10.471Z,96330.00
2022-10-09T04:15:38.345Z,96327.00
2022-10-09T04:21:06.666Z,96327.00
2022-10-09T04:26:35.638Z,96322.00
2022-10-09T04:32:03.788Z,96328.00
2022-10-09T04:37:31.722Z,96324.00
2022-10-09T04:42:59.455Z,96310.00
2022-10-09T04:48:27.176Z,96320.00
2022-10-09T04:54:00.484Z,96327.00
2022-10-09T04:59:28.629Z,96319.00
2022-10-09T05:04:57.409Z,96299.00
2022-10-09T05:10:25.263Z,96304.00
2022-10-09T05:15:53.156Z,96302.00
2022-10-09T05:21:22.318Z,96302.00
2022-10-09T05:26:50.214Z,96309.00
2022-10-09T05:32:18.022Z,96295.00
2022-10-09T05:37:45.889Z,96301.00
2022-10-09T05:43:13.633Z,96290.00
2022-10-09T05:48:44.133Z,96293.00
2022-10-09T05:54:17.345Z,96297.00
2022-10-09T05:59:45.207Z,96296.00
2022-10-09T06:05:13.115Z,96292.00
2022-10-09T06:10:40.906Z,96295.00
2022-10-09T06:16:11.791Z,96294.00
2022-10-09T06:21:40.145Z,96291.00
2022-10-09T06:27:08.566Z,96294.00
2022-10-09T06:32:36.610Z,96303.00
2022-10-09T06:38:04.455Z,96305.00
2022-10-09T06:43:32.701Z,96313.00
2022-10-09T06:49:02.653Z,96321.00
2022-10-09T06:54:30.445Z,96322.00
2022-10-09T06:59:58.185Z,96310.00
2022-10-09T07:05:26.029Z,96313.00
2022-10-09T07:10:53.833Z,96319.00
2022-10-09T07:16:28.183Z,96319.00
2022-10-09T07:21:56.176Z,96327.00
2022-10-09T07:27:24.426Z,96324.00
2022-10-09T07:32:52.244Z,96333.00
2022-10-09T07:38:20.045Z,96325.00
2022-10-09T07:43:48.092Z,96313.00
2022-10-09T07:49:15.826Z,96317.00
2022-10-09T07:54:43.583Z,96328.00
2022-10-09T08:00:12.284Z,96317.00
2022-10-09T08:05:39.972Z,96325.00
2022-10-09T08:11:14.949Z,96321.00
2022-10-09T08:16:42.883Z,96323.00
2022-10-09T08:22:12.352Z,96319.00
2022-10-09T08:27:40.272Z,96326.00
2022-10-09T08:33:08.118Z,96316.00
2022-10-09T08:38:47.288Z,96324.00
2022-10-09T08:44:39.730Z,96323.00
2022-10-09T08:50:17.292Z,96321.00
2022-10-09T08:56:01.971Z,96315.00
2022-10-09T09:02:01.473Z,96306.00
2022-10-09T09:08:22.471Z,96295.00
2022-10-09T09:14:00.603Z,96297.00
2022-10-09T09:20:22.091Z,96292.00
2022-10-09T09:25:50.048Z,96290.00
2022-10-09T09:31:31.525Z,96281.00
2022-10-09T09:36:59.536Z,96288.00
2022-10-09T09:42:28.765Z,96275.00
2022-10-09T09:48:08.029Z,96276.00
2022-10-09T09:53:40.787Z,96272.00
2022-10-09T09:59:37.079Z,96268.00
2022-10-09T10:05:27.448Z,96263.00
2022-10-09T10:11:06.875Z,96259.00
2022-10-09T10:16:38.761Z,96261.00
2022-10-09T10:22:24.608Z,96252.00
2022-10-09T10:28:03.974Z,96248.00
2022-10-09T10:33:36.662Z,96245.00
2022-10-09T10:39:35.915Z,96239.00
2022-10-09T10:45:46.855Z,96237.00
2022-10-09T10:51:59.870Z,96229.00
2022-10-09T10:58:03.854Z,96229.00
2022-10-09T11:03:59.230Z,96232.00
2022-10-09T11:10:03.607Z,96219.00
2022-10-09T11:16:13.251Z,96227.00
2022-10-09T11:22:11.072Z,96205.00
2022-10-09T11:27:57.527Z,96201.00
2022-10-09T11:33:54.823Z,96195.00
2022-10-09T11:39:26.178Z,96192.00
2022-10-09T11:45:03.036Z,96186.00
2022-10-09T11:50:52.841Z,96172.00
2022-10-09T11:56:25.088Z,96163.00
2022-10-09T12:01:53.971Z,96162.00
2022-10-09T12:13:39.375Z,96158.00
2022-10-09T12:19:35.031Z,96151.00
2022-10-09T12:25:16.911Z,96148.00
2022-10-09T12:30:49.287Z,96136.00
2022-10-09T12:36:25.338Z,96128.00
2022-10-09T12:41:57.137Z,96126.00
2022-10-09T12:47:28.393Z,96127.00
2022-10-09T12:53:00.737Z,96118.00
2022-10-09T12:58:39.419Z,96116.00
2022-10-09T13:04:09.431Z,96100.00
2022-10-09T13:09:40.383Z,96094.00
2022-10-09T13:15:33.705Z,96086.00
2022-10-09T13:21:32.697Z,96084.00
2022-10-09T13:27:04.850Z,96091.00
2022-10-09T13:32:32.732Z,96089.00
2022-10-09T13:38:00.529Z,96092.00
2022-10-09T13:43:34.881Z,96094.00
2022-10-09T13:49:02.643Z,96083.00
2022-10-09T13:54:30.722Z,96074.00
2022-10-09T13:59:58.601Z,96067.00
2022-10-09T14:05:26.941Z,96062.00
2022-10-09T14:10:54.837Z,96062.00
2022-10-09T14:16:22.904Z,96055.00
2022-10-09T14:21:50.709Z,96056.00
2022-10-09T14:27:18.565Z,96044.00
2022-10-09T14:32:46.799Z,96043.00
2022-10-09T14:38:14.922Z,96027.00
2022-10-09T14:43:42.728Z,96025.00
2022-10-09T14:49:11.304Z,96015.00
2022-10-09T14:54:39.323Z,96002.00
2022-10-09T15:00:08.852Z,95999.00
2022-10-09T15:05:36.661Z,95997.00
2022-10-09T15:11:05.577Z,96023.00
2022-10-09T15:16:33.697Z,95997.00
2022-10-09T15:22:01.518Z,95986.00
2022-10-09T15:27:29.341Z,95982.00
2022-10-09T15:33:01.419Z,95984.00
2022-10-09T15:38:29.272Z,95987.00
2022-10-09T15:44:01.196Z,95987.00
2022-10-09T15:49:28.953Z,95965.00
2022-10-09T15:54:56.780Z,95964.00
2022-10-09T16:00:24.576Z,95960.00
2022-10-09T16:05:52.916Z,95970.00
2022-10-09T16:11:25.063Z,95967.00
2022-10-09T16:16:54.853Z,95956.00
2022-10-09T16:22:22.640Z,95953.00
2022-10-09T16:27:50.472Z,95953.00
2022-10-09T16:33:18.810Z,95943.00
2022-10-09T16:38:46.931Z,95945.00
2022-10-09T16:44:16.999Z,95943.00
2022-10-09T16:49:44.791Z,95932.00
2022-10-09T16:55:12.594Z,95919.00
2022-10-09T17:00:40.435Z,95925.00
2022-10-09T17:06:11.558Z,95933.00
2022-10-09T17:11:40.111Z,95918.00
2022-10-09T17:17:11.158Z,95926.00
2022-10-09T17:22:39.014Z,95915.00
2022-10-09T17:28:08.066Z,95919.00
2022-10-09T17:33:41.177Z,95929.00
2022-10-09T17:39:16.789Z,95928.00
2022-10-09T17:44:44.534Z,95923.00
2022-10-09T17:50:12.462Z,95917.00
2022-10-09T17:55:40.182Z,95922.00
2022-10-09T18:01:10.496Z,95916.00
2022-10-09T18:06:38.468Z,95918.00
2022-10-09T18:12:06.251Z,95915.00
2022-10-09T18:17:34.640Z,95912.00
2022-10-09T18:23:03.651Z,95911.00
2022-10-09T18:28:31.687Z,95902.00
2022-10-09T18:34:01.115Z,95901.00
2022-10-09T18:39:29.029Z,95897.00
2022-10-09T18:44:56.906Z,95896.00
2022-10-09T18:50:24.801Z,95884.00
2022-10-09T18:55:52.683Z,95877.00
2022-10-09T19:01:20.915Z,95882.00
2022-10-09T19:06:54.035Z,95875.00
2022-10-09T19:12:21.920Z,95871.00
2022-10-09T19:17:50.572Z,95872.00
2022-10-09T19:23:19.089Z,95874.00
2022-10-09T19:28:47.267Z,95874.00
2022-10-09T19:34:16.143Z,95856.00
2022-10-09T19:39:51.664Z,95854.00
2022-10-09T19:45:23.772Z,95851.00
2022-10-09T19:50:52.682Z,95842.00
2022-10-09T19:56:33.428Z,95848.00
2022-10-09T20:02:05.199Z,95846.00
2022-10-09T20:07:43.067Z,95842.00
2022-10-09T20:13:19.789Z,95837.00
2022-10-09T20:18:57.986Z,95837.00
2022-10-09T20:24:28.122Z,95840.00
2022-10-09T20:29:56.603Z,95834.00
2022-10-09T20:35:38.846Z,95841.00
2022-10-09T20:41:14.626Z,95844.00
2022-10-09T20:46:49.574Z,95837.00
2022-10-09T20:52:24.980Z,95826.00
2022-10-09T20:57:56.386Z,95829.00
2022-10-09T21:03:28.813Z,95826.00
2022-10-09T21:09:05.774Z,95823.00
2022-10-09T21:14:39.861Z,95826.00
2022-10-09T21:20:17.988Z,95828.00
2022-10-09T21:25:57.645Z,95823.00
2022-10-09T21:31:32.278Z,95829.00
2022-10-09T21:42:52.785Z,95826.00
2022-10-09T21:48:21.864Z,95819.00
2022-10-09T21:53:54.147Z,95827.00
2022-10-09T21:59:26.090Z,95822.00
2022-10-09T22:10:54.844Z,95817.00
2022-10-09T22:16:48.328Z,95816.00
2022-10-09T22:22:33.013Z,95822.00
2022-10-09T22:28:30.072Z,95814.00
2022-10-09T22:34:04.107Z,95812.00
2022-10-09T22:39:56.360Z,95818.00
2022-10-09T22:45:30.308Z,95818.00
2022-10-09T22:51:29.289Z,95797.00
2022-10-09T22:56:58.697Z,95816.00
2022-10-09T23:02:26.560Z,95819.00
2022-10-09T23:07:57.485Z,95821.00
2022-10-09T23:13:27.517Z,95810.00
2022-10-09T23:18:58.209Z,95821.00
2022-10-09T23:24:27.059Z,95819.00
2022-10-09T23:30:00.718Z,95827.00
2022-10-09T23:35:28.645Z,95814.00
2022-10-09T23:41:05.425Z,95826.00
2022-10-09T23:46:34.087Z,95827.00
2022-10-09T23:52:01.930Z,95828.00
2022-10-09T23:57:29.824Z,95817.00
